Terminal Aerodrome Forecast
Issued by NWS

Home | Current Version | Previous Version | Text Only | Print | Product List | Glossary On
Versions: 1 2 3 4 5 6 7 8 9 10 11 12 13 14 15 16 17 18 19 20 21 22 23 24 25 26 27 28 29 30 31 32 33
000
FTAK31 PAFA 281929 AAA
TAFAOT
TAF AMD
PAOT 281929Z 2819/2918 29017KT P6SM BKN045 BKN080
     FM290000 31019KT P6SM BKN050
     FM291200 30016KT P6SM -SHRA FEW025 OVC050=

USA.gov is the U.S. government's official web portal to all federal, state and local government web resources and services.